createdAt,value
2017-04-29T00:00:54.433Z,96.89
2017-04-29T00:02:08.267Z,96.8
2017-04-29T00:03:21.512Z,96.8
2017-04-29T00:04:35.441Z,96.7
2017-04-29T00:05:49.565Z,96.8
2017-04-29T00:07:02.872Z,96.8
2017-04-29T00:08:16.824Z,97.09
2017-04-29T00:09:30.647Z,97.09
2017-04-29T00:10:44.562Z,97.47
2017-04-29T00:11:58.360Z,97.18
2017-04-29T00:13:12.129Z,97.56
2017-04-29T00:14:25.765Z,97.75
2017-04-29T00:15:39.382Z,96.99
2017-04-29T00:16:53.237Z,97.38
2017-04-29T00:18:07.428Z,97.18
2017-04-29T00:19:21.754Z,97.38
2017-04-29T00:20:35.928Z,97.47
2017-04-29T00:21:50.282Z,97.38
2017-04-29T00:23:03.955Z,97.47
2017-04-29T00:24:18.182Z,97.18
2017-04-29T00:25:32.366Z,97.28
2017-04-29T00:26:46.415Z,97.09
2017-04-29T00:28:00.659Z,96.99
2017-04-29T00:29:14.497Z,97.38
2017-04-29T00:30:28.806Z,96.99
2017-04-29T00:31:43.036Z,96.99
2017-04-29T00:33:11.184Z,96.8
2017-04-29T00:34:25.596Z,97.47
2017-04-29T00:35:39.419Z,96.99
2017-04-29T00:36:53.863Z,97.47
2017-04-29T00:38:07.662Z,96.89
2017-04-29T00:39:20.802Z,97.18
2017-04-29T00:40:34.738Z,96.89
2017-04-29T00:41:47.480Z,97.47
2017-04-29T00:43:00.224Z,97.66
2017-04-29T00:44:12.968Z,97.28
2017-04-29T00:45:25.229Z,97.09
2017-04-29T00:46:37.970Z,97.38
2017-04-29T00:47:50.709Z,97.18
2017-04-29T00:49:03.448Z,96.99
2017-04-29T00:50:16.195Z,97.09
2017-04-29T00:51:28.941Z,97.18
2017-04-29T00:52:41.677Z,97.38
2017-04-29T00:53:54.670Z,98.14
2017-04-29T00:55:07.440Z,97.75
2017-04-29T00:56:19.695Z,97.66
2017-04-29T00:57:31.966Z,97.85
2017-04-29T00:58:44.710Z,97.95
2017-04-29T00:59:57.450Z,97.85
2017-04-29T01:01:09.706Z,98.05
2017-04-29T01:02:22.438Z,97.75
2017-04-29T01:03:35.178Z,97.85
2017-04-29T01:04:47.920Z,97.85
2017-04-29T01:06:00.659Z,97.85
2017-04-29T01:07:13.394Z,97.85
2017-04-29T01:08:26.130Z,97.75
2017-04-29T01:09:38.637Z,97.75
2017-04-29T01:10:51.370Z,97.95
2017-04-29T01:12:03.626Z,97.85
2017-04-29T01:13:15.884Z,97.85
2017-04-29T01:14:28.621Z,97.85
2017-04-29T01:15:41.355Z,97.95
2017-04-29T01:16:53.607Z,97.95
2017-04-29T01:18:06.343Z,97.85
2017-04-29T01:19:18.605Z,97.85
2017-04-29T01:20:31.644Z,97.66
2017-04-29T01:21:44.381Z,97.75
2017-04-29T01:22:57.117Z,97.95
2017-04-29T01:24:09.860Z,98.14
2017-04-29T01:25:22.615Z,97.95
2017-04-29T01:26:35.425Z,97.85
2017-04-29T01:27:47.790Z,98.71
2017-04-29T01:29:00.084Z,98.33
2017-04-29T01:30:12.906Z,98.33
2017-04-29T01:31:25.504Z,98.62
2017-04-29T01:32:38.313Z,98.71
2017-04-29T01:33:51.104Z,98.91
2017-04-29T01:35:03.897Z,99.1
2017-04-29T01:36:16.705Z,98.71
2017-04-29T01:37:28.840Z,98.52
2017-04-29T01:38:41.611Z,98.43
2017-04-29T01:39:53.885Z,98.43
2017-04-29T01:41:06.186Z,98.24
2017-04-29T01:42:18.750Z,98.81
2017-04-29T01:43:31.065Z,98.71
2017-04-29T01:44:43.343Z,98.71
2017-04-29T01:45:56.093Z,98.71
2017-04-29T01:47:08.866Z,98.71
2017-04-29T01:48:21.919Z,98.81
2017-04-29T01:49:34.741Z,98.52
2017-04-29T01:50:47.565Z,98.62
2017-04-29T01:51:59.937Z,98.43
2017-04-29T01:53:12.769Z,98.33
2017-04-29T01:54:25.128Z,98.14
2017-04-29T01:55:38.012Z,98.33
2017-04-29T01:56:50.900Z,98.52
2017-04-29T01:58:03.727Z,97.66
2017-04-29T01:59:15.888Z,98.52
2017-04-29T02:00:28.699Z,97.66
2017-04-29T02:01:41.491Z,98.05
2017-04-29T02:02:54.276Z,98.05
2017-04-29T02:04:07.383Z,97.95
2017-04-29T02:05:18.702Z,98.05
2017-04-29T02:06:31.474Z,97.85
2017-04-29T02:07:44.404Z,98.05
2017-04-29T02:08:57.452Z,97.95
2017-04-29T02:10:10.366Z,97.38
2017-04-29T02:11:23.342Z,97.38
2017-04-29T02:12:36.437Z,97.38
2017-04-29T02:13:49.493Z,97.09
2017-04-29T02:15:02.601Z,97.28
2017-04-29T02:16:13.948Z,97.28
2017-04-29T02:17:26.310Z,97.38
2017-04-29T02:18:39.191Z,97.28
2017-04-29T02:19:52.041Z,97.04
2017-04-29T02:21:04.952Z,97.14
2017-04-29T02:22:17.876Z,97.04
2017-04-29T02:23:30.631Z,97.04
2017-04-29T02:24:43.371Z,97.04
2017-04-29T02:25:56.109Z,97.04
2017-04-29T02:27:08.857Z,96.84
2017-04-29T02:28:21.133Z,96.75
2017-04-29T02:29:33.889Z,96.13
2017-04-29T02:30:46.634Z,96.61
2017-04-29T02:31:59.378Z,96.66
2017-04-29T02:33:12.123Z,96.99
2017-04-29T02:34:24.861Z,96.84
2017-04-29T02:35:37.600Z,96.56
2017-04-29T02:36:50.341Z,96.94
2017-04-29T02:38:03.085Z,96.94
2017-04-29T02:39:15.348Z,97.04
2017-04-29T02:40:28.088Z,96.84
2017-04-29T02:41:40.828Z,97.23
2017-04-29T02:42:53.573Z,96.94
2017-04-29T02:44:06.322Z,96.75
2017-04-29T02:45:18.593Z,96.99
2017-04-29T02:46:31.334Z,97.14
2017-04-29T02:47:44.085Z,97.23
2017-04-29T02:48:56.841Z,97.14
2017-04-29T02:50:09.115Z,96.99
2017-04-29T02:51:21.856Z,97.04
2017-04-29T02:52:34.593Z,97.04
2017-04-29T02:53:47.337Z,96.94
2017-04-29T02:55:00.089Z,96.94
2017-04-29T02:56:12.358Z,97.23
2017-04-29T02:57:24.618Z,96.75
2017-04-29T02:58:37.369Z,96.84
2017-04-29T02:59:50.122Z,97.04
2017-04-29T03:01:02.876Z,96.56
2017-04-29T03:02:15.139Z,97.14
2017-04-29T03:03:27.995Z,96.37
2017-04-29T03:04:41.033Z,97.04
2017-04-29T03:05:53.785Z,97.14
2017-04-29T03:07:06.584Z,96.84
2017-04-29T03:08:19.242Z,97.04
2017-04-29T03:09:31.543Z,97.14
2017-04-29T03:10:44.287Z,96.56
2017-04-29T03:11:57.027Z,96.75
2017-04-29T03:13:09.780Z,96.84
2017-04-29T03:14:22.523Z,97.14
2017-04-29T03:15:35.270Z,96.94
2017-04-29T03:16:48.013Z,97.14
2017-04-29T03:18:00.766Z,96.94
2017-04-29T03:19:13.030Z,96.75
2017-04-29T03:20:25.776Z,97.04
2017-04-29T03:21:38.523Z,96.84
2017-04-29T03:22:51.291Z,97.04
2017-04-29T03:24:04.028Z,96.94
2017-04-29T03:25:16.774Z,96.94
2017-04-29T03:26:43.598Z,96.75
2017-04-29T03:27:56.349Z,96.75
2017-04-29T03:29:09.101Z,97.38
2017-04-29T03:30:21.387Z,97.42
2017-04-29T03:31:34.136Z,97.23
2017-04-29T03:32:46.414Z,97.42
2017-04-29T03:33:59.171Z,97.23
2017-04-29T03:35:11.439Z,97.23
2017-04-29T03:36:24.438Z,97.33
2017-04-29T03:37:37.194Z,97.42
2017-04-29T03:38:49.943Z,97.42
2017-04-29T03:40:02.697Z,97.04
2017-04-29T03:41:14.484Z,97.52
2017-04-29T03:42:27.240Z,97.52
2017-04-29T03:43:39.995Z,96.84
2017-04-29T03:44:52.757Z,97.04
2017-04-29T03:46:05.513Z,96.94
2017-04-29T03:47:17.317Z,97.52
2017-04-29T03:48:30.066Z,97.42
2017-04-29T03:49:42.816Z,97.42
2017-04-29T03:50:55.599Z,97.14
2017-04-29T03:52:08.347Z,97.52
2017-04-29T03:53:21.111Z,97.42
2017-04-29T03:54:33.867Z,97.42
2017-04-29T03:55:46.134Z,97.42
2017-04-29T03:56:58.398Z,97.42
2017-04-29T03:58:10.663Z,97.42
2017-04-29T03:59:23.401Z,97.23
2017-04-29T04:00:35.669Z,97.23
2017-04-29T04:01:48.420Z,97.33
2017-04-29T04:03:01.181Z,97.42
2017-04-29T04:04:14.175Z,97.33
2017-04-29T04:05:26.918Z,97.33
2017-04-29T04:06:39.662Z,97.23
2017-04-29T04:07:52.414Z,97.8
2017-04-29T04:09:05.411Z,97.8
2017-04-29T04:10:17.682Z,98.19
2017-04-29T04:11:30.422Z,97.61
2017-04-29T04:12:43.170Z,97.9
2017-04-29T04:13:55.918Z,98
2017-04-29T04:15:08.672Z,98
2017-04-29T04:16:21.429Z,98
2017-04-29T04:17:34.174Z,98
2017-04-29T04:18:46.922Z,97.9
2017-04-29T04:19:59.677Z,98.19
2017-04-29T04:21:12.424Z,97.61
2017-04-29T04:22:24.693Z,97.71
2017-04-29T04:23:37.431Z,97.9
2017-04-29T04:24:50.172Z,97.8
2017-04-29T04:26:02.949Z,97.8
2017-04-29T04:27:15.690Z,97.61
2017-04-29T04:28:28.434Z,97.42
2017-04-29T04:29:41.183Z,97.14
2017-04-29T04:30:53.936Z,97.42
2017-04-29T04:32:06.676Z,97.42
2017-04-29T04:33:18.931Z,97.42
2017-04-29T04:34:31.195Z,97.52
2017-04-29T04:35:43.941Z,97.42
2017-04-29T04:36:56.984Z,97.33
2017-04-29T04:38:09.734Z,97.42
2017-04-29T04:39:22.013Z,97.04
2017-04-29T04:40:34.291Z,97.23
2017-04-29T04:41:46.858Z,97.14
2017-04-29T04:42:59.637Z,97.14
2017-04-29T04:44:11.906Z,96.84
2017-04-29T04:45:24.650Z,96.84
2017-04-29T04:46:36.915Z,96.94
2017-04-29T04:47:49.911Z,96.94
2017-04-29T04:49:02.676Z,96.94
2017-04-29T04:50:15.432Z,96.94
2017-04-29T04:51:28.170Z,96.84
2017-04-29T04:52:40.909Z,96.94
2017-04-29T04:53:53.646Z,96.94
2017-04-29T04:55:05.911Z,96.84
2017-04-29T04:56:18.655Z,96.84
2017-04-29T04:57:31.404Z,97.04
2017-04-29T04:58:58.231Z,96.75
2017-04-29T05:00:10.978Z,96.84
2017-04-29T05:01:23.715Z,97.04
2017-04-29T05:02:36.461Z,97.23
2017-04-29T05:03:49.214Z,96.84
2017-04-29T05:05:01.961Z,97.14
2017-04-29T05:06:14.708Z,96.18
2017-04-29T05:07:27.442Z,96.94
2017-04-29T05:08:39.947Z,96.47
2017-04-29T05:09:52.693Z,96.94
2017-04-29T05:11:04.953Z,97.14
2017-04-29T05:12:17.208Z,96.75
2017-04-29T05:13:29.952Z,96.94
2017-04-29T05:14:42.687Z,96.66
2017-04-29T05:15:54.951Z,97.04
2017-04-29T05:17:07.685Z,97.23
2017-04-29T05:18:20.431Z,96.56
2017-04-29T05:19:32.695Z,96.47
2017-04-29T05:20:45.429Z,96.37
2017-04-29T05:21:58.161Z,96.84
2017-04-29T05:23:10.420Z,96.47
2017-04-29T05:24:23.177Z,96.61
2017-04-29T05:25:36.178Z,96.51
2017-04-29T05:26:48.919Z,96.37
2017-04-29T05:28:01.663Z,96.32
2017-04-29T05:29:13.926Z,95.98
2017-04-29T05:30:26.974Z,95.84
2017-04-29T05:31:39.712Z,95.94
2017-04-29T05:32:51.976Z,95.75
2017-04-29T05:34:04.732Z,95.75
2017-04-29T05:35:17.001Z,95.79
2017-04-29T05:36:29.749Z,95.84
2017-04-29T05:37:42.013Z,96.13
2017-04-29T05:38:54.762Z,95.94
2017-04-29T05:40:07.511Z,95.46
2017-04-29T05:41:20.257Z,96.32
2017-04-29T05:42:33.004Z,95.94
2017-04-29T05:43:45.745Z,95.84
2017-04-29T05:44:58.487Z,95.84
2017-04-29T05:46:10.273Z,96.03
2017-04-29T05:47:22.784Z,95.7
2017-04-29T05:48:35.050Z,96.22
2017-04-29T05:49:47.795Z,96.08
2017-04-29T05:51:00.548Z,96.03
2017-04-29T05:52:13.297Z,95.84
2017-04-29T05:53:25.083Z,95.84
2017-04-29T05:54:37.827Z,95.94
2017-04-29T05:55:50.572Z,95.84
2017-04-29T05:57:03.312Z,96.18
2017-04-29T05:58:16.056Z,96.03
2017-04-29T05:59:28.320Z,96.13
2017-04-29T06:00:41.063Z,95.84
2017-04-29T06:01:53.897Z,96.22
2017-04-29T06:03:06.937Z,95.07
2017-04-29T06:04:19.678Z,95.07
2017-04-29T06:05:32.428Z,95.07
2017-04-29T06:06:45.174Z,95.07
2017-04-29T06:07:57.918Z,95.36
2017-04-29T06:09:10.962Z,95.36
2017-04-29T06:10:23.704Z,95.07
2017-04-29T06:11:36.438Z,95.46
2017-04-29T06:12:49.170Z,95.26
2017-04-29T06:14:02.211Z,95.17
2017-04-29T06:15:14.948Z,95.17
2017-04-29T06:16:27.680Z,95.46
2017-04-29T06:17:39.463Z,95.17
2017-04-29T06:18:52.242Z,95.26
2017-04-29T06:20:05.281Z,95.26
2017-04-29T06:21:17.057Z,95.31
2017-04-29T06:22:29.791Z,95.36
2017-04-29T06:23:42.527Z,95.17
2017-04-29T06:24:55.569Z,95.12
2017-04-29T06:26:07.825Z,95.31
2017-04-29T06:27:20.085Z,95.36
2017-04-29T06:28:32.820Z,95.36
2017-04-29T06:29:45.565Z,95.07
2017-04-29T06:30:58.070Z,95.31
2017-04-29T06:32:10.809Z,95.31
2017-04-29T06:33:23.547Z,95.03
2017-04-29T06:34:35.809Z,95.17
2017-04-29T06:35:48.546Z,95.7
2017-04-29T06:37:01.321Z,95.51
2017-04-29T06:38:14.054Z,95.7
2017-04-29T06:39:26.313Z,95.65
2017-04-29T06:40:38.603Z,95.75
2017-04-29T06:41:51.636Z,95.31
2017-04-29T06:43:03.899Z,95.31
2017-04-29T06:44:16.662Z,95.7
2017-04-29T06:45:29.399Z,95.89
2017-04-29T06:46:41.663Z,95.79
2017-04-29T06:47:54.401Z,95.79
2017-04-29T06:49:07.145Z,95.7
2017-04-29T06:50:19.406Z,95.6
2017-04-29T06:51:32.150Z,95.79
2017-04-29T06:52:44.915Z,95.79
2017-04-29T06:53:57.697Z,95.31
2017-04-29T06:55:09.967Z,95.22
2017-04-29T06:56:22.707Z,95.41
2017-04-29T06:57:35.702Z,95.31
2017-04-29T06:58:48.447Z,95.79
2017-04-29T07:00:01.204Z,95.12
2017-04-29T07:01:13.468Z,95.12
2017-04-29T07:02:26.217Z,95.22
2017-04-29T07:03:38.983Z,95.31
2017-04-29T07:04:51.727Z,95.03
2017-04-29T07:06:04.487Z,95.22
2017-04-29T07:07:17.254Z,95.07
2017-04-29T07:08:30.012Z,95.26
2017-04-29T07:09:42.285Z,95.26
2017-04-29T07:10:55.036Z,94.89
2017-04-29T07:12:07.779Z,94.89
2017-04-29T07:13:20.059Z,95.12
2017-04-29T07:14:32.336Z,95.22
2017-04-29T07:15:45.082Z,95.31
2017-04-29T07:16:57.829Z,95.07
2017-04-29T07:18:10.577Z,95.12
2017-04-29T07:19:23.327Z,94.98
2017-04-29T07:20:36.078Z,95.51
2017-04-29T07:21:47.863Z,95.03
2017-04-29T07:23:00.617Z,95.03
2017-04-29T07:24:13.383Z,95.22
2017-04-29T07:25:26.141Z,95.36
2017-04-29T07:26:38.412Z,95.41
2017-04-29T07:27:50.676Z,95.03
2017-04-29T07:29:03.463Z,95.26
2017-04-29T07:30:16.544Z,95.31
2017-04-29T07:31:29.291Z,95.46
2017-04-29T07:32:42.054Z,95.07
2017-04-29T07:33:54.804Z,95.26
2017-04-29T07:35:07.548Z,94.89
2017-04-29T07:36:19.809Z,95.03
2017-04-29T07:37:32.566Z,94.93
2017-04-29T07:38:45.351Z,95.07
2017-04-29T07:39:57.623Z,94.84
2017-04-29T07:41:10.189Z,95.51
2017-04-29T07:42:22.451Z,95.51
2017-04-29T07:43:34.724Z,95.07
2017-04-29T07:44:47.483Z,95.46
2017-04-29T07:46:00.233Z,95.56
2017-04-29T07:47:13.231Z,95.36
2017-04-29T07:48:25.976Z,95.03
2017-04-29T07:49:38.734Z,95.17
2017-04-29T07:50:51.486Z,95.26
2017-04-29T07:52:04.055Z,95.17
2017-04-29T07:53:16.805Z,95.17
2017-04-29T07:54:29.558Z,95.03
2017-04-29T07:55:42.310Z,95.51
2017-04-29T07:56:55.050Z,95.17
2017-04-29T07:58:07.560Z,95.56
2017-04-29T07:59:19.364Z,95.26
2017-04-29T08:00:32.113Z,95.36
2017-04-29T08:01:44.849Z,95.03
2017-04-29T08:02:57.592Z,95.51
2017-04-29T08:04:10.337Z,95.26
2017-04-29T08:05:22.600Z,95.41
2017-04-29T08:06:35.340Z,95.12
2017-04-29T08:07:48.085Z,95.31
2017-04-29T08:09:01.136Z,95.22
2017-04-29T08:10:13.882Z,95.26
2017-04-29T08:11:26.628Z,95.36
2017-04-29T08:12:39.366Z,95.31
2017-04-29T08:13:52.113Z,95.22
2017-04-29T08:15:04.869Z,95.56
2017-04-29T08:16:17.612Z,95.07
2017-04-29T08:17:29.880Z,95.03
2017-04-29T08:18:42.139Z,95.03
2017-04-29T08:19:54.179Z,95.26
2017-04-29T08:21:06.928Z,95.03
2017-04-29T08:22:19.668Z,95.7
2017-04-29T08:23:32.408Z,95.22
2017-04-29T08:24:45.156Z,95.07
2017-04-29T08:25:57.906Z,95.03
2017-04-29T08:27:10.656Z,95.03
2017-04-29T08:28:23.394Z,95.03
2017-04-29T08:29:36.135Z,95.07
2017-04-29T08:30:48.884Z,95.17
2017-04-29T08:32:01.634Z,95.07
2017-04-29T08:33:13.895Z,95.07
2017-04-29T08:34:26.651Z,95.79
2017-04-29T08:35:39.398Z,95.51
2017-04-29T08:36:52.144Z,95.94
2017-04-29T08:38:04.891Z,94.98
2017-04-29T08:39:17.637Z,95.6
2017-04-29T08:40:29.925Z,95.98
2017-04-29T08:41:42.671Z,96.32
2017-04-29T08:42:55.419Z,96.27
2017-04-29T08:44:08.168Z,96.13
2017-04-29T08:45:19.963Z,96.18
2017-04-29T08:46:32.708Z,96.27
2017-04-29T08:47:45.443Z,95.98
2017-04-29T08:48:58.191Z,96.27
2017-04-29T08:50:10.946Z,95.98
2017-04-29T08:51:23.686Z,95.94
2017-04-29T08:52:35.955Z,95.89
2017-04-29T08:53:48.698Z,95.89
2017-04-29T08:55:01.446Z,96.08
2017-04-29T08:56:14.196Z,95.51
2017-04-29T08:57:26.941Z,95.65
2017-04-29T08:58:39.689Z,95.75
2017-04-29T08:59:52.450Z,95.56
2017-04-29T09:01:05.200Z,95.75
2017-04-29T09:02:17.946Z,95.65
2017-04-29T09:03:30.933Z,95.46
2017-04-29T09:04:43.682Z,95.94
2017-04-29T09:05:55.944Z,95.94
2017-04-29T09:07:08.214Z,95.84
2017-04-29T09:08:20.962Z,96.22
2017-04-29T09:09:33.706Z,95.79
2017-04-29T09:10:46.452Z,95.84
2017-04-29T09:11:59.209Z,95.94
2017-04-29T09:13:11.958Z,96.32
2017-04-29T09:14:25.005Z,95.56
2017-04-29T09:15:37.743Z,96.18
2017-04-29T09:16:50.015Z,95.56
2017-04-29T09:18:02.761Z,95.98
2017-04-29T09:19:14.794Z,96.18
2017-04-29T09:20:27.542Z,96.22
2017-04-29T09:21:40.283Z,96.08
2017-04-29T09:22:53.029Z,96.13
2017-04-29T09:24:05.771Z,96.03
2017-04-29T09:25:19.574Z,96.08
2017-04-29T09:26:32.317Z,95.84
2017-04-29T09:27:45.061Z,95.94
2017-04-29T09:28:57.812Z,96.03
2017-04-29T09:30:10.550Z,96.13
2017-04-29T09:31:22.818Z,95.94
2017-04-29T09:32:35.567Z,96.22
2017-04-29T09:33:48.313Z,96.13
2017-04-29T09:35:01.061Z,95.46
2017-04-29T09:36:13.571Z,95.65
2017-04-29T09:37:26.317Z,95.07
2017-04-29T09:38:39.065Z,94.98
2017-04-29T09:39:51.809Z,95.07
2017-04-29T09:41:04.549Z,95.36
2017-04-29T09:42:17.294Z,95.36
2017-04-29T09:43:29.559Z,95.36
2017-04-29T09:44:42.309Z,95.56
2017-04-29T09:45:55.048Z,95.56
2017-04-29T09:47:07.791Z,95.07
2017-04-29T09:48:20.071Z,95.26
2017-04-29T09:49:32.821Z,95.07
2017-04-29T09:50:45.566Z,94.89
2017-04-29T09:51:58.608Z,95.26
2017-04-29T09:53:10.873Z,95.36
2017-04-29T09:54:23.620Z,95.07
2017-04-29T09:55:35.874Z,95.46
2017-04-29T09:56:48.611Z,94.89
2017-04-29T09:58:00.877Z,95.26
2017-04-29T09:59:12.665Z,95.07
2017-04-29T10:00:25.410Z,95.07
2017-04-29T10:01:37.672Z,95.36
2017-04-29T10:02:50.412Z,95.17
2017-04-29T10:04:03.204Z,95.26
2017-04-29T10:05:15.941Z,95.36
2017-04-29T10:06:28.672Z,95.17
2017-04-29T10:07:40.925Z,95.36
2017-04-29T10:08:53.910Z,95.17
2017-04-29T10:10:06.177Z,94.4
2017-04-29T10:11:18.463Z,94.69
2017-04-29T10:12:31.195Z,94.59
2017-04-29T10:13:43.939Z,94.5
2017-04-29T10:14:56.688Z,94.5
2017-04-29T10:16:09.421Z,94.4
2017-04-29T10:17:22.191Z,95.03
2017-04-29T10:18:34.928Z,94.74
2017-04-29T10:19:47.913Z,94.31
2017-04-29T10:21:00.659Z,94.89
2017-04-29T10:22:13.396Z,94.69
2017-04-29T10:23:26.139Z,94.17
2017-04-29T10:24:38.885Z,94.12
2017-04-29T10:25:51.635Z,94.35
2017-04-29T10:27:04.370Z,94.07
2017-04-29T10:28:16.636Z,94.35
2017-04-29T10:29:28.901Z,94.02
2017-04-29T10:30:41.895Z,94.12
2017-04-29T10:31:54.162Z,95.03
2017-04-29T10:33:06.422Z,94.74
2017-04-29T10:34:19.170Z,94.84
2017-04-29T10:35:31.917Z,94.84
2017-04-29T10:36:44.182Z,94.84
2017-04-29T10:37:56.926Z,94.84
2017-04-29T10:39:09.671Z,94.54
2017-04-29T10:40:22.419Z,94.54
2017-04-29T10:41:35.460Z,94.54
2017-04-29T10:42:48.201Z,94.54
2017-04-29T10:44:00.468Z,94.84
2017-04-29T10:45:12.739Z,94.64
2017-04-29T10:46:25.786Z,94.89
2017-04-29T10:47:38.530Z,94.64
2017-04-29T10:48:51.274Z,94.45
2017-04-29T10:50:04.015Z,94.26
2017-04-29T10:51:16.284Z,94.26
2017-04-29T10:52:29.276Z,94.07
2017-04-29T10:53:41.539Z,94.93
2017-04-29T10:54:54.285Z,94.84
2017-04-29T10:56:07.044Z,94.54
2017-04-29T10:57:19.610Z,94.93
2017-04-29T10:58:32.359Z,94.45
2017-04-29T10:59:45.111Z,94.17
2017-04-29T11:00:57.383Z,93.78
2017-04-29T11:02:10.132Z,93.97
2017-04-29T11:03:22.888Z,94.07
2017-04-29T11:04:35.646Z,93.68
2017-04-29T11:05:47.917Z,93.88
2017-04-29T11:07:00.663Z,94.07
2017-04-29T11:08:27.008Z,93.21
2017-04-29T11:09:39.760Z,92.91
2017-04-29T11:10:52.508Z,93.11
2017-04-29T11:12:04.299Z,93.3
2017-04-29T11:13:16.576Z,93.3
2017-04-29T11:14:28.852Z,92.63
2017-04-29T11:15:41.126Z,92.82
2017-04-29T11:16:53.878Z,92.63
2017-04-29T11:18:06.630Z,92.91
2017-04-29T11:19:18.417Z,92.63
2017-04-29T11:20:31.168Z,92.63
2017-04-29T11:21:43.950Z,93.3
2017-04-29T11:22:56.701Z,93.01
2017-04-29T11:24:09.452Z,92.91
2017-04-29T11:25:21.797Z,93.11
2017-04-29T11:26:34.072Z,92.63
2017-04-29T11:27:46.814Z,92.68
2017-04-29T11:28:59.099Z,92.68
2017-04-29T11:30:11.846Z,93.21
2017-04-29T11:31:24.584Z,92.77
2017-04-29T11:32:37.329Z,92.68
2017-04-29T11:33:50.082Z,92.29
2017-04-29T11:35:03.083Z,92
2017-04-29T11:36:15.348Z,92
2017-04-29T11:37:28.092Z,92
2017-04-29T11:38:40.842Z,92.19
2017-04-29T11:39:53.594Z,92.29
2017-04-29T11:41:06.346Z,91.91
2017-04-29T11:42:19.095Z,91.81
2017-04-29T11:43:31.841Z,91.62
2017-04-29T11:44:44.590Z,91.72
2017-04-29T11:45:57.341Z,91.62
2017-04-29T11:47:09.610Z,91.24
2017-04-29T11:48:22.358Z,91.52
2017-04-29T11:49:34.645Z,91.42
2017-04-29T11:50:47.402Z,91.24
2017-04-29T11:51:59.922Z,91.33
2017-04-29T11:53:12.190Z,91.42
2017-04-29T11:54:24.460Z,91.42
2017-04-29T11:55:36.277Z,91.33
2017-04-29T11:56:49.029Z,91.09
2017-04-29T11:58:01.778Z,90.8
2017-04-29T11:59:14.054Z,90.52
2017-04-29T12:00:26.812Z,90.61
2017-04-29T12:01:39.088Z,90.42
2017-04-29T12:02:52.089Z,90.42
2017-04-29T12:04:04.361Z,90.32
2017-04-29T12:05:17.113Z,90.13
2017-04-29T12:06:29.869Z,89.94
2017-04-29T12:07:42.393Z,90.32
2017-04-29T12:08:54.663Z,89.55
2017-04-29T12:10:07.403Z,89.75
2017-04-29T12:11:20.146Z,89.17
2017-04-29T12:12:32.405Z,89.94
2017-04-29T12:13:59.235Z,90.42
2017-04-29T12:15:11.028Z,89.94
2017-04-29T12:16:23.778Z,90.13
2017-04-29T12:17:36.521Z,90.42
2017-04-29T12:18:49.510Z,90.22
2017-04-29T12:20:01.772Z,89.84
2017-04-29T12:21:13.550Z,89.6
2017-04-29T12:22:26.297Z,88.83
2017-04-29T12:23:39.031Z,88.93
2017-04-29T12:24:51.768Z,88.93
2017-04-29T12:26:04.508Z,88.93
2017-04-29T12:27:17.246Z,88.16
2017-04-29T12:28:30.040Z,88.25
2017-04-29T12:29:41.826Z,88.06
2017-04-29T12:30:54.084Z,87.68
2017-04-29T12:32:06.823Z,87.68
2017-04-29T12:33:19.083Z,87.77
2017-04-29T12:34:31.824Z,87.1
2017-04-29T12:35:43.607Z,87.29
2017-04-29T12:36:56.348Z,87.01
2017-04-29T12:38:09.086Z,87.29
2017-04-29T12:39:21.828Z,86.85
2017-04-29T12:40:34.568Z,86.95
2017-04-29T12:41:47.303Z,86.09
2017-04-29T12:43:00.046Z,86.28
2017-04-29T12:44:12.789Z,85.71
2017-04-29T12:45:25.835Z,86.09
2017-04-29T12:46:38.570Z,85.65
2017-04-29T12:47:51.309Z,85.46
2017-04-29T12:49:04.052Z,84.59
2017-04-29T12:50:16.313Z,84.21
2017-04-29T12:51:29.052Z,84.21
2017-04-29T12:52:41.311Z,83.92
2017-04-29T12:53:53.578Z,84.21
2017-04-29T12:55:06.320Z,83.73
2017-04-29T12:56:19.358Z,84.4
2017-04-29T12:57:32.096Z,83.73
2017-04-29T12:58:44.358Z,83.92
2017-04-29T12:59:56.143Z,84.44
2017-04-29T13:01:08.404Z,84.25
2017-04-29T13:02:20.670Z,85.02
2017-04-29T13:03:33.412Z,84.73
2017-04-29T13:04:46.152Z,84.63
2017-04-29T13:05:58.416Z,84.34
2017-04-29T13:07:11.155Z,82.81
2017-04-29T13:08:24.198Z,82.61
2017-04-29T13:09:36.949Z,83
2017-04-29T13:10:49.686Z,82.61
2017-04-29T13:12:02.431Z,82.71
2017-04-29T13:13:15.178Z,82.71
2017-04-29T13:14:27.463Z,82.9
2017-04-29T13:15:40.200Z,82.9
2017-04-29T13:16:52.939Z,82.81
2017-04-29T13:18:05.205Z,82.9
2017-04-29T13:19:17.477Z,82.81
2017-04-29T13:20:30.214Z,82.9
2017-04-29T13:21:42.471Z,83
2017-04-29T13:22:55.208Z,83
2017-04-29T13:24:07.950Z,82.04
2017-04-29T13:25:20.690Z,82.04
2017-04-29T13:26:32.951Z,82.23
2017-04-29T13:27:45.699Z,82.71
2017-04-29T13:28:58.446Z,82.61
2017-04-29T13:30:10.713Z,82.52
2017-04-29T13:31:22.498Z,82.81
2017-04-29T13:32:35.233Z,81.94
2017-04-29T13:33:47.974Z,82.14
2017-04-29T13:35:00.974Z,82.42
2017-04-29T13:36:13.234Z,81.84
2017-04-29T13:37:25.508Z,81.84
2017-04-29T13:38:37.772Z,81.65
2017-04-29T13:39:50.513Z,81.88
2017-04-29T13:41:17.335Z,80.92
2017-04-29T13:42:30.104Z,80.44
2017-04-29T13:43:42.369Z,80.44
2017-04-29T13:44:55.112Z,80.06
2017-04-29T13:46:07.852Z,79.96
2017-04-29T13:47:20.112Z,79.71
2017-04-29T13:48:32.854Z,78.94
2017-04-29T13:49:45.589Z,78.85
2017-04-29T13:50:58.584Z,78.98
2017-04-29T13:52:11.319Z,78.02
2017-04-29T13:53:24.063Z,78.31
2017-04-29T13:54:36.806Z,79.17
2017-04-29T13:55:49.546Z,78.98
2017-04-29T13:57:02.060Z,78.4
2017-04-29T13:58:14.322Z,77.83
2017-04-29T13:59:27.070Z,77.25
2017-04-29T14:00:39.806Z,77.15
2017-04-29T14:01:52.555Z,77.34
2017-04-29T14:03:04.821Z,78.27
2017-04-29T14:04:17.084Z,78.08
2017-04-29T14:05:29.341Z,78.75
2017-04-29T14:06:42.076Z,78.11
2017-04-29T14:07:54.815Z,78.21
2017-04-29T14:09:07.084Z,78.02
2017-04-29T14:10:19.342Z,78.21
2017-04-29T14:11:31.612Z,77.63
2017-04-29T14:12:44.356Z,78.11
2017-04-29T14:13:57.102Z,78.02
2017-04-29T14:15:09.365Z,77.73
2017-04-29T14:16:21.630Z,78.02
2017-04-29T14:17:34.368Z,77.63
2017-04-29T14:18:47.106Z,77.53
2017-04-29T14:19:59.858Z,76.96
2017-04-29T14:21:12.121Z,77.53
2017-04-29T14:22:24.868Z,77.58
2017-04-29T14:23:37.860Z,77.76
2017-04-29T14:24:50.608Z,77.28
2017-04-29T14:26:03.360Z,77.25
2017-04-29T14:27:16.108Z,77.58
2017-04-29T14:28:28.378Z,76.9
2017-04-29T14:29:41.126Z,77.58
2017-04-29T14:30:53.880Z,77.28
2017-04-29T14:32:06.633Z,76.42
2017-04-29T14:33:19.386Z,76.8
2017-04-29T14:34:46.223Z,76.42
2017-04-29T14:35:58.982Z,77.76
2017-04-29T14:37:10.773Z,77.06
2017-04-29T14:38:23.040Z,77.15
2017-04-29T14:39:35.321Z,77.25
2017-04-29T14:40:47.597Z,77.38
2017-04-29T14:42:00.346Z,77.48
2017-04-29T14:43:12.620Z,77.19
2017-04-29T14:44:25.369Z,77.48
2017-04-29T14:45:37.647Z,77.38
2017-04-29T14:46:50.405Z,77.38
2017-04-29T14:48:02.675Z,77.19
2017-04-29T14:49:14.469Z,77.76
2017-04-29T14:50:27.243Z,78.06
2017-04-29T14:51:39.997Z,77.19
2017-04-29T14:52:52.745Z,77.58
2017-04-29T14:54:05.500Z,77.19
2017-04-29T14:55:17.776Z,77.58
2017-04-29T14:56:30.521Z,77.28
2017-04-29T14:57:43.276Z,78.15
2017-04-29T14:58:56.032Z,78.06
2017-04-29T15:00:08.775Z,77.58
2017-04-29T15:01:21.522Z,77.58
2017-04-29T15:02:34.279Z,76.9
2017-04-29T15:03:47.038Z,77.67
2017-04-29T15:04:59.309Z,77.38
2017-04-29T15:06:12.052Z,77.28
2017-04-29T15:07:24.809Z,78.25
2017-04-29T15:08:37.555Z,78.44
2017-04-29T15:09:50.324Z,78.15
2017-04-29T15:11:02.596Z,78.15
2017-04-29T15:12:15.597Z,79.02
2017-04-29T15:13:28.354Z,79.02
2017-04-29T15:14:41.100Z,80.27
2017-04-29T15:15:53.844Z,81.58
2017-04-29T15:17:06.121Z,82.06
2017-04-29T15:18:18.877Z,83.31
2017-04-29T15:19:31.632Z,83.51
2017-04-29T15:20:44.377Z,84.72
2017-04-29T15:21:57.129Z,85.87
2017-04-29T15:23:09.880Z,86.02
2017-04-29T15:24:22.152Z,86.41
2017-04-29T15:25:34.904Z,86.51
2017-04-29T15:26:47.167Z,86.69
2017-04-29T15:27:59.917Z,86.69
2017-04-29T15:29:12.921Z,87.46
2017-04-29T15:30:25.195Z,87.27
2017-04-29T15:31:37.936Z,87.37
2017-04-29T15:32:50.694Z,87.37
2017-04-29T15:34:03.447Z,88.04
2017-04-29T15:35:15.715Z,88.33
2017-04-29T15:36:27.991Z,87.95
2017-04-29T15:37:40.743Z,88.24
2017-04-29T15:38:53.524Z,88.04
2017-04-29T15:40:05.815Z,88.53